Time;durP1;ratioP1;P1;durP2;ratioP2;P2;SDS_P1;SDS_P2;PMS_P1;PMS_P2;Temp;Humidity;BMP_temperature;BMP_pressure;BME280_temperature;BME280_humidity;BME280_pressure;Samples;Min_cycle;Max_cycle;Signal;HPM_P1;HPM_P2
2021/04/06 00:00:28;;;;;;;5.20;2.20;;;;;;;;;;5083489;28;21108;-68
2021/04/06 00:02:57;;;;;;;3.87;2.27;;;;;;;;;;5080804;28;20194;-67
2021/04/06 00:05:24;;;;;;;5.83;2.07;;;;;;;;;;5083976;28;20211;-68
2021/04/06 00:07:51;;;;;;;4.70;2.10;;;;;;;;;;5083922;28;20178;-68
2021/04/06 00:10:19;;;;;;;4.80;3.00;;;;;;;;;;5081227;28;20178;-67
2021/04/06 00:12:47;;;;;;;5.53;2.27;;;;;;;;;;5082964;28;20190;-66
2021/04/06 00:15:14;;;;;;;4.50;2.10;;;;;;;;;;5076136;28;20628;-68
2021/04/06 00:17:43;;;;;;;8.80;2.37;;;;;;;;;;5079759;28;20530;-67
2021/04/06 00:20:09;;;;;;;2.80;2.23;;;;;;;;;;5078016;28;20179;-67
2021/04/06 00:22:36;;;;;;;4.67;2.53;;;;;;;;;;5083069;28;20303;-67
2021/04/06 00:25:02;;;;;;;4.97;2.67;;;;;;;;;;5080039;28;20221;-66
2021/04/06 00:27:28;;;;;;;2.53;2.17;;;;;;;;;;5079503;28;20186;-66
2021/04/06 00:29:58;;;;;;;6.10;2.87;;;;;;;;;;5087139;28;20194;-68
2021/04/06 00:32:26;;;;;;;4.73;2.57;;;;;;;;;;5085132;28;20190;-67
2021/04/06 00:34:54;;;;;;;8.67;2.77;;;;;;;;;;5082483;28;20214;-66
2021/04/06 00:37:20;;;;;;;5.30;2.57;;;;;;;;;;5082212;28;20268;-66
2021/04/06 00:39:47;;;;;;;3.70;2.30;;;;;;;;;;5078537;28;20294;-66
2021/04/06 00:42:20;;;;;;;5.60;2.43;;;;;;;;;;5089021;28;20217;-66
2021/04/06 00:44:52;;;;;;;6.90;2.50;;;;;;;;;;5084588;28;20190;-66
2021/04/06 00:47:23;;;;;;;7.77;2.93;;;;;;;;;;5075292;28;20644;-65
2021/04/06 00:49:49;;;;;;;9.47;2.57;;;;;;;;;;5080381;28;20179;-66
2021/04/06 00:52:15;;;;;;;5.67;3.07;;;;;;;;;;5075428;28;20722;-66
2021/04/06 00:54:41;;;;;;;5.00;2.80;;;;;;;;;;5076710;28;20182;-66
2021/04/06 00:57:07;;;;;;;4.30;2.63;;;;;;;;;;5076986;28;20528;-65
2021/04/06 00:59:34;;;;;;;6.90;3.27;;;;;;;;;;5085184;28;20214;-66
2021/04/06 01:02:02;;;;;;;6.53;2.47;;;;;;;;;;5077439;28;20179;-66
2021/04/06 01:04:29;;;;;;;6.93;2.57;;;;;;;;;;5076720;28;20202;-66
2021/04/06 01:07:14;;;;;;;6.07;2.90;;;;;;;;;;5086461;28;20203;-66
2021/04/06 01:09:41;;;;;;;6.87;3.07;;;;;;;;;;5083820;28;20196;-65
2021/04/06 01:12:08;;;;;;;4.93;2.60;;;;;;;;;;5084656;28;20227;-67
2021/04/06 01:14:35;;;;;;;9.67;3.00;;;;;;;;;;5080338;28;20643;-66
2021/04/06 01:17:02;;;;;;;6.43;3.17;;;;;;;;;;5082160;28;20337;-67
2021/04/06 01:19:29;;;;;;;6.10;3.27;;;;;;;;;;5077324;28;20214;-67
2021/04/06 01:21:56;;;;;;;4.60;3.30;;;;;;;;;;5079501;28;20218;-66
2021/04/06 01:24:22;;;;;;;5.03;3.23;;;;;;;;;;5085741;28;20261;-65
2021/04/06 01:26:49;;;;;;;5.23;3.20;;;;;;;;;;5078335;28;20217;-67
2021/04/06 01:29:15;;;;;;;7.30;3.00;;;;;;;;;;5070730;28;20316;-66
2021/04/06 01:31:42;;;;;;;7.90;3.40;;;;;;;;;;5073977;28;20358;-66
2021/04/06 01:34:08;;;;;;;7.87;3.03;;;;;;;;;;5086695;28;20178;-68
2021/04/06 01:36:34;;;;;;;5.53;3.80;;;;;;;;;;5080738;28;20252;-66
2021/04/06 01:39:00;;;;;;;7.40;3.57;;;;;;;;;;5079257;28;20198;-66
2021/04/06 01:41:26;;;;;;;5.00;3.03;;;;;;;;;;5089951;28;20202;-66
2021/04/06 01:43:52;;;;;;;4.50;3.03;;;;;;;;;;5079828;28;20182;-66
2021/04/06 01:46:24;;;;;;;3.53;3.03;;;;;;;;;;5078793;28;20194;-67
2021/04/06 01:48:51;;;;;;;4.93;3.20;;;;;;;;;;5082498;28;20649;-68
2021/04/06 01:51:21;;;;;;;4.97;3.03;;;;;;;;;;5077209;28;20265;-66
2021/04/06 01:53:47;;;;;;;3.80;2.43;;;;;;;;;;5080433;28;20179;-67
2021/04/06 01:56:17;;;;;;;5.37;2.90;;;;;;;;;;5077510;28;20195;-66
2021/04/06 01:58:53;;;;;;;5.77;2.53;;;;;;;;;;5078251;28;20295;-70
2021/04/06 02:01:21;;;;;;;9.60;3.03;;;;;;;;;;5079781;28;20208;-64
2021/04/06 02:04:01;;;;;;;5.87;2.70;;;;;;;;;;5076552;28;20193;-67
2021/04/06 02:06:32;;;;;;;4.60;3.13;;;;;;;;;;5077366;28;20191;-67
2021/04/06 02:09:00;;;;;;;5.13;2.83;;;;;;;;;;5081498;28;20187;-67
2021/04/06 02:11:30;;;;;;;5.30;2.90;;;;;;;;;;5077899;28;20226;-66
2021/04/06 02:14:13;;;;;;;5.17;2.77;;;;;;;;;;5077812;28;20647;-67
2021/04/06 02:16:43;;;;;;;4.03;2.90;;;;;;;;;;5081564;28;20564;-66
2021/04/06 02:19:09;;;;;;;6.80;2.63;;;;;;;;;;5081167;28;20207;-67
2021/04/06 02:21:48;;;;;;;4.20;2.70;;;;;;;;;;5080525;28;20317;-65
2021/04/06 02:24:35;;;;;;;7.67;3.00;;;;;;;;;;5079857;28;20188;-65
2021/04/06 02:27:05;;;;;;;5.07;2.80;;;;;;;;;;5085355;28;20264;-65
2021/04/06 02:29:36;;;;;;;9.10;3.23;;;;;;;;;;5096474;28;20633;-65
2021/04/06 02:32:05;;;;;;;5.60;2.73;;;;;;;;;;5096496;28;20190;-66
2021/04/06 02:34:34;;;;;;;4.80;2.87;;;;;;;;;;5096170;28;20223;-65
2021/04/06 02:37:01;;;;;;;3.40;2.70;;;;;;;;;;5091533;28;20666;-66
2021/04/06 02:39:27;;;;;;;4.77;2.73;;;;;;;;;;5089130;28;20248;-67
2021/04/06 02:41:53;;;;;;;6.50;3.33;;;;;;;;;;5086049;28;20570;-65
2021/04/06 02:44:19;;;;;;;5.63;3.00;;;;;;;;;;5085265;28;20179;-66
2021/04/06 02:46:50;;;;;;;6.77;3.00;;;;;;;;;;5093326;28;20203;-66
2021/04/06 02:49:17;;;;;;;5.50;3.07;;;;;;;;;;5091190;28;20258;-65
2021/04/06 02:51:43;;;;;;;6.00;2.87;;;;;;;;;;5080475;28;20192;-67
2021/04/06 02:54:09;;;;;;;5.47;2.60;;;;;;;;;;5094279;28;20182;-66
2021/04/06 02:56:36;;;;;;;6.20;3.20;;;;;;;;;;5088244;28;20233;-67
2021/04/06 02:59:15;;;;;;;5.97;3.10;;;;;;;;;;5086496;28;20206;-66
2021/04/06 03:01:42;;;;;;;6.17;2.97;;;;;;;;;;5076960;28;20269;-66
2021/04/06 03:04:24;;;;;;;6.23;3.43;;;;;;;;;;5079363;28;20217;-65
2021/04/06 03:06:57;;;;;;;6.20;3.60;;;;;;;;;;5084579;28;20202;-67
2021/04/06 03:09:24;;;;;;;6.60;3.07;;;;;;;;;;5083923;28;20265;-67
2021/04/06 03:11:54;;;;;;;5.77;3.33;;;;;;;;;;5080195;28;20203;-65
2021/04/06 03:14:25;;;;;;;7.40;3.80;;;;;;;;;;5074000;28;20187;-66
2021/04/06 03:16:52;;;;;;;8.43;2.97;;;;;;;;;;5071256;28;20195;-65
2021/04/06 03:19:21;;;;;;;4.77;2.90;;;;;;;;;;5080187;28;20214;-65
2021/04/06 03:21:47;;;;;;;4.67;3.23;;;;;;;;;;5085711;28;20174;-64
2021/04/06 03:24:13;;;;;;;5.07;3.47;;;;;;;;;;5082553;28;20174;-66
2021/04/06 03:26:39;;;;;;;7.23;3.57;;;;;;;;;;5079962;28;20215;-65
2021/04/06 03:29:06;;;;;;;6.17;3.43;;;;;;;;;;5084517;28;20582;-66
2021/04/06 03:31:34;;;;;;;7.03;3.57;;;;;;;;;;5085859;28;20183;-65
2021/04/06 03:34:00;;;;;;;6.17;3.67;;;;;;;;;;5076245;28;20570;-65
2021/04/06 03:36:28;;;;;;;8.23;3.60;;;;;;;;;;5090491;28;20661;-66
2021/04/06 03:38:55;;;;;;;6.50;3.83;;;;;;;;;;5076909;28;20206;-66
2021/04/06 03:41:25;;;;;;;7.37;4.33;;;;;;;;;;5076976;28;20186;-66
2021/04/06 03:43:52;;;;;;;6.53;4.00;;;;;;;;;;5074386;28;20190;-66
2021/04/06 03:46:23;;;;;;;6.90;3.77;;;;;;;;;;5085403;28;20210;-66
2021/04/06 03:48:50;;;;;;;6.80;4.27;;;;;;;;;;5082054;28;20189;-71
2021/04/06 03:51:24;;;;;;;8.73;4.43;;;;;;;;;;5083379;28;20324;-67
2021/04/06 03:53:50;;;;;;;5.97;4.80;;;;;;;;;;5080566;28;20681;-67
2021/04/06 03:56:16;;;;;;;6.33;4.30;;;;;;;;;;5079290;28;20206;-66
2021/04/06 03:58:56;;;;;;;10.83;4.37;;;;;;;;;;5081675;28;20209;-66
2021/04/06 04:01:22;;;;;;;8.13;3.87;;;;;;;;;;5080673;28;20269;-67
2021/04/06 04:03:52;;;;;;;5.87;3.90;;;;;;;;;;5080514;28;20727;-67
2021/04/06 04:06:25;;;;;;;9.20;4.13;;;;;;;;;;5085218;28;20211;-65
2021/04/06 04:08:52;;;;;;;5.50;3.70;;;;;;;;;;5085961;28;20187;-66
2021/04/06 04:11:18;;;;;;;6.97;3.30;;;;;;;;;;5084993;28;20261;-66
2021/04/06 04:13:44;;;;;;;4.10;3.57;;;;;;;;;;5073775;28;20827;-66
2021/04/06 04:16:10;;;;;;;6.73;3.40;;;;;;;;;;5086716;28;20202;-66
2021/04/06 04:18:36;;;;;;;5.20;3.80;;;;;;;;;;5077228;28;20241;-66
2021/04/06 04:21:03;;;;;;;6.90;3.87;;;;;;;;;;5084263;28;20186;-67
2021/04/06 04:23:29;;;;;;;5.53;3.50;;;;;;;;;;5078481;28;20295;-66
2021/04/06 04:25:55;;;;;;;9.30;4.03;;;;;;;;;;5076939;28;20245;-67
2021/04/06 04:28:21;;;;;;;6.97;3.90;;;;;;;;;;5083224;28;20214;-67
2021/04/06 04:30:49;;;;;;;7.33;3.60;;;;;;;;;;5075500;28;20217;-66
2021/04/06 04:33:15;;;;;;;6.27;3.37;;;;;;;;;;5084757;28;20190;-67
2021/04/06 04:35:41;;;;;;;5.37;3.60;;;;;;;;;;5082857;28;20212;-68
2021/04/06 04:38:08;;;;;;;11.40;4.10;;;;;;;;;;5080382;28;20207;-67
2021/04/06 04:40:34;;;;;;;7.70;4.10;;;;;;;;;;5075611;28;20191;-66
2021/04/06 04:43:00;;;;;;;8.00;3.37;;;;;;;;;;5075424;28;20266;-67
2021/04/06 04:45:27;;;;;;;8.57;3.87;;;;;;;;;;5083206;28;20277;-67
2021/04/06 04:47:53;;;;;;;8.57;3.80;;;;;;;;;;5082721;28;20184;-66
2021/04/06 04:50:21;;;;;;;10.37;3.90;;;;;;;;;;5077815;28;20190;-66
2021/04/06 04:52:48;;;;;;;7.07;3.63;;;;;;;;;;5077724;28;20190;-68
2021/04/06 04:55:15;;;;;;;6.40;3.60;;;;;;;;;;5073302;28;20363;-67
2021/04/06 04:57:41;;;;;;;5.50;3.63;;;;;;;;;;5078111;28;20228;-66
2021/04/06 05:00:08;;;;;;;7.83;4.37;;;;;;;;;;5077037;28;20268;-68
2021/04/06 05:02:34;;;;;;;9.43;4.37;;;;;;;;;;5077365;28;20684;-65
2021/04/06 05:05:00;;;;;;;9.10;3.77;;;;;;;;;;5074630;28;20602;-68
2021/04/06 05:07:26;;;;;;;10.17;4.10;;;;;;;;;;5077025;28;20658;-66
2021/04/06 05:09:52;;;;;;;7.50;4.10;;;;;;;;;;5079302;28;20364;-66
2021/04/06 05:12:18;;;;;;;6.63;3.50;;;;;;;;;;5078548;28;20190;-67
2021/04/06 05:14:46;;;;;;;6.43;3.60;;;;;;;;;;5082511;28;20182;-68
2021/04/06 05:17:12;;;;;;;4.70;3.60;;;;;;;;;;5075663;28;20305;-66
2021/04/06 05:19:38;;;;;;;7.73;3.70;;;;;;;;;;5081446;28;20229;-66
2021/04/06 05:22:05;;;;;;;6.70;4.20;;;;;;;;;;5079700;28;20547;-68
2021/04/06 05:24:31;;;;;;;7.57;4.33;;;;;;;;;;5076220;28;20645;-67
2021/04/06 05:26:57;;;;;;;9.97;4.33;;;;;;;;;;5085362;28;20215;-66
2021/04/06 05:29:22;;;;;;;6.20;3.90;;;;;;;;;;5086984;28;20554;-66
2021/04/06 05:31:49;;;;;;;6.93;4.47;;;;;;;;;;5074162;28;20195;-67
2021/04/06 05:34:14;;;;;;;8.37;4.63;;;;;;;;;;5083441;28;20197;-65
2021/04/06 05:36:41;;;;;;;5.97;3.80;;;;;;;;;;5088132;28;20570;-66
2021/04/06 05:39:07;;;;;;;7.73;4.50;;;;;;;;;;5079478;28;20216;-66
2021/04/06 05:41:34;;;;;;;6.70;3.70;;;;;;;;;;5081527;28;20182;-68
2021/04/06 05:44:01;;;;;;;7.67;4.30;;;;;;;;;;5076897;28;20248;-67
2021/04/06 05:46:31;;;;;;;6.40;4.40;;;;;;;;;;5074943;28;20730;-65
2021/04/06 05:48:59;;;;;;;6.63;4.43;;;;;;;;;;5076674;28;20202;-67
2021/04/06 05:51:26;;;;;;;9.63;4.10;;;;;;;;;;5073787;28;20780;-66
2021/04/06 05:53:53;;;;;;;9.73;3.97;;;;;;;;;;5078214;28;20202;-66
2021/04/06 05:56:19;;;;;;;6.93;4.07;;;;;;;;;;5085105;28;20234;-66
2021/04/06 05:58:45;;;;;;;9.53;4.13;;;;;;;;;;5080856;28;20214;-66
2021/04/06 06:01:11;;;;;;;8.97;4.73;;;;;;;;;;5079408;28;20190;-66
2021/04/06 06:03:37;;;;;;;5.70;3.97;;;;;;;;;;5078570;28;20194;-66
2021/04/06 06:06:03;;;;;;;8.63;4.00;;;;;;;;;;5086987;28;20206;-66
2021/04/06 06:08:30;;;;;;;5.80;3.70;;;;;;;;;;5077067;28;20242;-67
2021/04/06 06:11:03;;;;;;;8.97;4.13;;;;;;;;;;5082531;28;20189;-66
2021/04/06 06:13:29;;;;;;;11.60;4.00;;;;;;;;;;5085648;28;20233;-66
2021/04/06 06:16:07;;;;;;;7.60;3.80;;;;;;;;;;5075741;28;20206;-66
2021/04/06 06:18:34;;;;;;;9.80;4.03;;;;;;;;;;5075711;28;20210;-67
2021/04/06 06:21:00;;;;;;;10.13;4.10;;;;;;;;;;5070014;28;20191;-67
2021/04/06 06:23:26;;;;;;;7.40;4.03;;;;;;;;;;5074779;28;20646;-67
2021/04/06 06:26:07;;;;;;;8.87;4.00;;;;;;;;;;5080958;28;20716;-67
2021/04/06 06:28:35;;;;;;;10.67;4.30;;;;;;;;;;5084478;28;20192;-67
2021/04/06 06:31:01;;;;;;;7.20;4.00;;;;;;;;;;5080729;28;20183;-66
2021/04/06 06:33:30;;;;;;;9.17;4.13;;;;;;;;;;5079946;28;20187;-67
2021/04/06 06:35:57;;;;;;;7.43;3.97;;;;;;;;;;5076073;28;20581;-68
2021/04/06 06:38:26;;;;;;;11.57;4.70;;;;;;;;;;5080066;28;20686;-66
2021/04/06 06:40:53;;;;;;;7.30;4.20;;;;;;;;;;5071977;28;20182;-67
2021/04/06 06:43:21;;;;;;;8.27;3.73;;;;;;;;;;5079694;28;20546;-67
2021/04/06 06:45:48;;;;;;;8.43;3.83;;;;;;;;;;5078289;28;20712;-67
2021/04/06 06:48:26;;;;;;;9.40;3.97;;;;;;;;;;5083504;28;20219;-66
2021/04/06 06:50:52;;;;;;;13.30;4.30;;;;;;;;;;5070750;28;20671;-66
2021/04/06 06:53:38;;;;;;;8.33;4.30;;;;;;;;;;5079163;28;20193;-66
2021/04/06 06:56:06;;;;;;;6.30;4.30;;;;;;;;;;5075063;28;20209;-65
2021/04/06 06:58:33;;;;;;;7.43;4.20;;;;;;;;;;5078375;28;20257;-67
2021/04/06 07:01:00;;;;;;;8.57;4.70;;;;;;;;;;5087777;28;20262;-67
2021/04/06 07:03:26;;;;;;;4.07;3.67;;;;;;;;;;5083762;28;20210;-67
2021/04/06 07:05:52;;;;;;;10.43;5.03;;;;;;;;;;5085392;28;20225;-65
2021/04/06 07:08:33;;;;;;;6.03;3.67;;;;;;;;;;5083329;28;20187;-67
2021/04/06 07:11:00;;;;;;;8.50;4.00;;;;;;;;;;5085238;28;20740;-66
2021/04/06 07:13:28;;;;;;;4.10;3.70;;;;;;;;;;5084791;28;20270;-67
2021/04/06 07:15:55;;;;;;;12.70;4.50;;;;;;;;;;5088394;28;20217;-68
2021/04/06 07:18:24;;;;;;;8.47;4.20;;;;;;;;;;5086000;28;20707;-67
2021/04/06 07:20:59;;;;;;;10.30;4.37;;;;;;;;;;5085523;28;20603;-66
2021/04/06 07:23:37;;;;;;;5.27;4.10;;;;;;;;;;5081977;28;20180;-66
2021/04/06 07:26:17;;;;;;;13.33;4.23;;;;;;;;;;5079836;28;20253;-67
2021/04/06 07:28:43;;;;;;;9.70;5.00;;;;;;;;;;5085604;28;20262;-66
2021/04/06 07:31:14;;;;;;;10.70;4.70;;;;;;;;;;5078994;28;20252;-67
2021/04/06 07:33:41;;;;;;;12.60;4.40;;;;;;;;;;5085636;28;20183;-66
2021/04/06 07:36:08;;;;;;;5.50;3.80;;;;;;;;;;5088404;28;20233;-66
2021/04/06 07:38:35;;;;;;;7.63;4.20;;;;;;;;;;5086386;28;20209;-67
2021/04/06 07:41:02;;;;;;;8.70;4.60;;;;;;;;;;5085806;28;20722;-67
2021/04/06 07:43:29;;;;;;;9.27;3.80;;;;;;;;;;5083512;28;20750;-67
2021/04/06 07:45:55;;;;;;;10.03;4.23;;;;;;;;;;5088270;28;20222;-66
2021/04/06 07:48:51;;;;;;;8.37;4.73;;;;;;;;;;5088926;28;20659;-66
2021/04/06 07:51:21;;;;;;;10.33;4.20;;;;;;;;;;5067171;28;20203;-67
2021/04/06 07:54:13;;;;;;;8.70;4.30;;;;;;;;;;5066790;28;20192;-66
2021/04/06 07:56:45;;;;;;;8.40;3.80;;;;;;;;;;5055191;28;20447;-68
2021/04/06 07:59:20;;;;;;;5.60;3.83;;;;;;;;;;5066607;28;20220;-66
2021/04/06 08:01:54;;;;;;;7.50;4.10;;;;;;;;;;5063623;28;20237;-68
2021/04/06 08:04:24;;;;;;;5.80;4.23;;;;;;;;;;5063888;28;20215;-66
2021/04/06 08:06:54;;;;;;;10.37;3.93;;;;;;;;;;5060630;28;20853;-66
2021/04/06 08:09:26;;;;;;;6.23;4.37;;;;;;;;;;5062685;28;20206;-66
2021/04/06 08:12:03;;;;;;;6.63;4.20;;;;;;;;;;5062383;28;20631;-66
2021/04/06 08:14:32;;;;;;;8.40;4.10;;;;;;;;;;5060547;28;20322;-68
2021/04/06 08:17:16;;;;;;;11.67;5.33;;;;;;;;;;5057196;28;20923;-68
2021/04/06 08:20:01;;;;;;;11.17;5.60;;;;;;;;;;5061954;28;20210;-67
2021/04/06 08:22:32;;;;;;;10.27;4.53;;;;;;;;;;5065860;28;20193;-66
2021/04/06 08:25:16;;;;;;;6.77;4.30;;;;;;;;;;5062932;28;20255;-66
2021/04/06 08:27:45;;;;;;;11.83;4.50;;;;;;;;;;5071217;28;20596;-68
2021/04/06 08:30:18;;;;;;;9.63;4.10;;;;;;;;;;5081712;28;20186;-68
2021/04/06 08:32:57;;;;;;;7.53;3.87;;;;;;;;;;5083509;28;20882;-67
2021/04/06 08:35:41;;;;;;;8.13;4.43;;;;;;;;;;5084439;28;20218;-65
2021/04/06 08:38:23;;;;;;;8.30;4.53;;;;;;;;;;5083869;28;20272;-67
2021/04/06 08:40:49;;;;;;;10.40;4.70;;;;;;;;;;5083256;28;20628;-67
2021/04/06 08:43:17;;;;;;;13.17;4.50;;;;;;;;;;5085772;28;20181;-67
2021/04/06 08:45:58;;;;;;;13.70;4.97;;;;;;;;;;5080906;28;20198;-66
2021/04/06 08:48:53;;;;;;;12.77;4.33;;;;;;;;;;5087689;28;20193;-67
2021/04/06 08:51:22;;;;;;;8.47;3.70;;;;;;;;;;5076240;28;20189;-68
2021/04/06 08:53:49;;;;;;;8.40;4.43;;;;;;;;;;5074409;28;20205;-66
2021/04/06 08:56:16;;;;;;;12.37;4.20;;;;;;;;;;5079399;28;20332;-67
2021/04/06 08:58:42;;;;;;;10.00;3.63;;;;;;;;;;5076343;28;20202;-66
2021/04/06 09:01:08;;;;;;;7.00;3.60;;;;;;;;;;5074983;28;20296;-67
2021/04/06 09:03:35;;;;;;;9.73;4.07;;;;;;;;;;5076755;28;20191;-68
2021/04/06 09:06:08;;;;;;;12.17;4.10;;;;;;;;;;5079087;28;20603;-68
2021/04/06 09:08:50;;;;;;;5.93;3.47;;;;;;;;;;5071933;28;20186;-67
2021/04/06 09:11:20;;;;;;;11.27;4.30;;;;;;;;;;5075295;28;20297;-66
2021/04/06 09:13:47;;;;;;;10.47;4.70;;;;;;;;;;5080856;28;20629;-66
2021/04/06 09:16:14;;;;;;;12.23;5.33;;;;;;;;;;5076716;28;20696;-67
2021/04/06 09:18:40;;;;;;;9.63;4.37;;;;;;;;;;5074766;28;20218;-67
2021/04/06 09:21:07;;;;;;;11.93;4.20;;;;;;;;;;5072637;28;20186;-66
2021/04/06 09:23:37;;;;;;;11.73;5.17;;;;;;;;;;5082747;28;20568;-66
2021/04/06 09:26:04;;;;;;;14.27;4.60;;;;;;;;;;5070786;28;20220;-67
2021/04/06 09:28:31;;;;;;;8.57;4.23;;;;;;;;;;5072701;28;20282;-68
2021/04/06 09:30:57;;;;;;;12.80;6.17;;;;;;;;;;5086325;28;20233;-69
2021/04/06 09:33:23;;;;;;;12.73;4.73;;;;;;;;;;5084245;28;20184;-68
2021/04/06 09:35:51;;;;;;;13.27;5.93;;;;;;;;;;5075449;28;20216;-67
2021/04/06 09:38:18;;;;;;;11.57;6.23;;;;;;;;;;5080042;28;20221;-68
2021/04/06 09:40:44;;;;;;;12.23;4.70;;;;;;;;;;5081322;28;20560;-68
2021/04/06 09:43:10;;;;;;;11.80;5.90;;;;;;;;;;5076919;28;20659;-66
2021/04/06 09:45:36;;;;;;;13.50;5.90;;;;;;;;;;5075639;28;20203;-66
2021/04/06 09:48:03;;;;;;;11.87;6.43;;;;;;;;;;5079883;28;20260;-66
2021/04/06 09:50:29;;;;;;;14.93;5.50;;;;;;;;;;5082161;28;20198;-66
2021/04/06 09:52:55;;;;;;;7.60;3.57;;;;;;;;;;5079623;28;20209;-66
2021/04/06 09:55:22;;;;;;;6.63;3.33;;;;;;;;;;5081025;28;20904;-66
2021/04/06 09:57:49;;;;;;;7.27;3.50;;;;;;;;;;5079347;28;20654;-66
2021/04/06 10:00:17;;;;;;;11.83;4.63;;;;;;;;;;5069793;28;20219;-66
2021/04/06 10:02:45;;;;;;;7.80;3.93;;;;;;;;;;5082250;28;20180;-67
2021/04/06 10:05:23;;;;;;;8.53;3.60;;;;;;;;;;5083960;28;20201;-66
2021/04/06 10:07:50;;;;;;;8.20;3.13;;;;;;;;;;5081101;28;20779;-66
2021/04/06 10:10:20;;;;;;;4.30;2.67;;;;;;;;;;5083632;28;20194;-66
2021/04/06 10:12:48;;;;;;;7.70;2.50;;;;;;;;;;5078695;28;20190;-66
2021/04/06 10:15:18;;;;;;;3.63;2.20;;;;;;;;;;5074127;28;20200;-66
2021/04/06 10:17:45;;;;;;;7.77;2.93;;;;;;;;;;5078989;28;20190;-66
2021/04/06 10:20:13;;;;;;;6.70;2.87;;;;;;;;;;5080675;28;20214;-65
2021/04/06 10:22:41;;;;;;;4.37;2.67;;;;;;;;;;5082522;28;20192;-66
2021/04/06 10:25:07;;;;;;;3.63;2.50;;;;;;;;;;5086955;28;20274;-66
2021/04/06 10:27:40;;;;;;;5.33;2.50;;;;;;;;;;5079441;28;20197;-66
2021/04/06 10:30:17;;;;;;;5.10;2.57;;;;;;;;;;5078101;28;20184;-66
2021/04/06 10:32:47;;;;;;;6.27;2.70;;;;;;;;;;5078483;28;20181;-66
2021/04/06 10:35:15;;;;;;;8.93;2.50;;;;;;;;;;5079493;28;20221;-66
2021/04/06 10:37:49;;;;;;;4.90;2.50;;;;;;;;;;5084102;28;20193;-66
2021/04/06 10:40:20;;;;;;;5.23;3.17;;;;;;;;;;5083130;28;20219;-65
2021/04/06 10:42:48;;;;;;;3.63;2.57;;;;;;;;;;5074617;28;20274;-66
2021/04/06 10:45:14;;;;;;;3.93;2.80;;;;;;;;;;5072826;28;20221;-67
2021/04/06 10:47:41;;;;;;;6.53;3.50;;;;;;;;;;5091924;28;20724;-66
2021/04/06 10:50:07;;;;;;;9.17;4.50;;;;;;;;;;5075969;28;20239;-66
2021/04/06 10:52:34;;;;;;;4.90;2.97;;;;;;;;;;5084744;28;20192;-67
2021/04/06 10:55:01;;;;;;;8.27;3.90;;;;;;;;;;5080715;28;20218;-67
2021/04/06 10:57:28;;;;;;;6.23;3.10;;;;;;;;;;5085137;28;20559;-67
2021/04/06 10:59:54;;;;;;;6.57;3.30;;;;;;;;;;5086019;28;20788;-67
2021/04/06 11:02:21;;;;;;;7.83;3.93;;;;;;;;;;5088240;28;20262;-65
2021/04/06 11:04:47;;;;;;;6.33;3.20;;;;;;;;;;5085812;28;20180;-66
2021/04/06 11:07:13;;;;;;;5.93;2.83;;;;;;;;;;5085228;28;20177;-67
2021/04/06 11:09:41;;;;;;;6.10;2.90;;;;;;;;;;5084142;28;20171;-66
2021/04/06 11:12:08;;;;;;;5.53;2.77;;;;;;;;;;5082410;28;20179;-66
2021/04/06 11:14:35;;;;;;;4.27;2.50;;;;;;;;;;5081031;28;20704;-65
2021/04/06 11:17:05;;;;;;;5.60;3.63;;;;;;;;;;5084022;28;20209;-66
2021/04/06 11:19:37;;;;;;;4.83;3.27;;;;;;;;;;5079340;28;20203;-66
2021/04/06 11:22:05;;;;;;;6.53;3.53;;;;;;;;;;5080322;28;20240;-65
2021/04/06 11:24:32;;;;;;;4.37;3.10;;;;;;;;;;5092671;28;20180;-65
2021/04/06 11:26:59;;;;;;;5.50;2.73;;;;;;;;;;5082945;28;20214;-66
2021/04/06 11:29:27;;;;;;;5.83;2.80;;;;;;;;;;5082976;28;20212;-65
2021/04/06 11:31:54;;;;;;;4.63;2.77;;;;;;;;;;5086471;28;20182;-66
2021/04/06 11:34:20;;;;;;;6.67;2.90;;;;;;;;;;5078056;28;20189;-67
2021/04/06 11:36:47;;;;;;;4.50;2.83;;;;;;;;;;5079492;28;20241;-67
2021/04/06 11:39:15;;;;;;;4.63;2.77;;;;;;;;;;5073496;28;20258;-67
2021/04/06 11:41:41;;;;;;;6.70;3.40;;;;;;;;;;5083038;28;20179;-65
2021/04/06 11:44:08;;;;;;;5.17;3.10;;;;;;;;;;5082063;28;20188;-66
2021/04/06 11:46:35;;;;;;;6.50;3.10;;;;;;;;;;5078454;28;20201;-66
2021/04/06 11:49:01;;;;;;;8.97;4.20;;;;;;;;;;5080011;28;20187;-66
2021/04/06 11:51:28;;;;;;;9.33;5.83;;;;;;;;;;5071786;28;20216;-67
2021/04/06 11:53:54;;;;;;;9.93;6.83;;;;;;;;;;5080138;28;20240;-66
2021/04/06 11:56:20;;;;;;;10.30;8.07;;;;;;;;;;5082536;28;20218;-66
2021/04/06 11:58:46;;;;;;;6.43;5.10;;;;;;;;;;5085574;28;20238;-67
2021/04/06 12:01:12;;;;;;;10.53;7.73;;;;;;;;;;5074179;28;20179;-66
2021/04/06 12:03:38;;;;;;;3.80;2.60;;;;;;;;;;5081142;28;20174;-67
2021/04/06 12:06:04;;;;;;;5.13;2.70;;;;;;;;;;5081275;28;20202;-67
2021/04/06 12:08:30;;;;;;;6.90;3.10;;;;;;;;;;5079954;28;20649;-66
2021/04/06 12:10:56;;;;;;;5.03;3.30;;;;;;;;;;5089542;28;20194;-66
2021/04/06 12:13:22;;;;;;;5.67;3.50;;;;;;;;;;5084842;28;21017;-65
2021/04/06 12:15:48;;;;;;;5.97;3.90;;;;;;;;;;5085225;28;20676;-66
2021/04/06 12:18:14;;;;;;;6.50;4.30;;;;;;;;;;5082631;28;20178;-65
2021/04/06 12:20:41;;;;;;;5.63;2.97;;;;;;;;;;5089261;28;20179;-65
2021/04/06 12:23:08;;;;;;;6.37;2.40;;;;;;;;;;5079361;28;20193;-65
2021/04/06 12:25:34;;;;;;;6.77;2.73;;;;;;;;;;5079805;28;20221;-67
2021/04/06 12:28:00;;;;;;;6.30;2.67;;;;;;;;;;5086778;28;20187;-66
2021/04/06 12:30:26;;;;;;;5.43;2.33;;;;;;;;;;5081450;28;20225;-65
2021/04/06 12:32:52;;;;;;;4.77;2.80;;;;;;;;;;5078124;28;20542;-68
2021/04/06 12:35:18;;;;;;;6.03;2.50;;;;;;;;;;5074577;28;20218;-65
2021/04/06 12:37:44;;;;;;;3.13;2.13;;;;;;;;;;5083254;28;20182;-66
2021/04/06 12:40:10;;;;;;;4.37;2.63;;;;;;;;;;5086048;28;20287;-65
2021/04/06 12:42:37;;;;;;;5.87;3.10;;;;;;;;;;5082824;28;20190;-65
2021/04/06 12:45:08;;;;;;;6.90;2.63;;;;;;;;;;5082601;28;20198;-66
2021/04/06 12:47:35;;;;;;;6.07;3.23;;;;;;;;;;5079343;28;20560;-67
2021/04/06 12:50:01;;;;;;;5.03;2.60;;;;;;;;;;5079157;28;20183;-66
2021/04/06 12:52:27;;;;;;;8.40;3.57;;;;;;;;;;5078791;28;20175;-66
2021/04/06 12:54:53;;;;;;;3.93;2.20;;;;;;;;;;5073004;28;20400;-64
2021/04/06 12:57:19;;;;;;;4.47;2.27;;;;;;;;;;5071041;28;20663;-65
2021/04/06 12:59:45;;;;;;;4.33;2.50;;;;;;;;;;5076192;28;20214;-65
2021/04/06 13:02:11;;;;;;;7.40;4.23;;;;;;;;;;5069259;28;20671;-65
2021/04/06 13:04:37;;;;;;;4.17;2.47;;;;;;;;;;5078076;28;20575;-67
2021/04/06 13:07:03;;;;;;;2.97;2.17;;;;;;;;;;5079216;28;20179;-66
2021/04/06 13:09:30;;;;;;;3.37;2.10;;;;;;;;;;5082328;28;20197;-66
2021/04/06 13:11:57;;;;;;;4.43;2.50;;;;;;;;;;5081261;28;20228;-66
2021/04/06 13:14:23;;;;;;;5.40;2.53;;;;;;;;;;5080914;28;20178;-66
2021/04/06 13:16:50;;;;;;;4.43;2.00;;;;;;;;;;5073922;28;20228;-66
2021/04/06 13:19:16;;;;;;;5.87;2.87;;;;;;;;;;5082843;28;20677;-66
2021/04/06 13:21:43;;;;;;;4.43;2.00;;;;;;;;;;5077277;28;20203;-65
2021/04/06 13:24:09;;;;;;;1.87;1.70;;;;;;;;;;5071818;28;20611;-65
2021/04/06 13:26:35;;;;;;;3.93;2.17;;;;;;;;;;5077347;28;20306;-65
2021/04/06 13:29:02;;;;;;;3.27;2.10;;;;;;;;;;5079550;28;20210;-64
2021/04/06 13:31:28;;;;;;;4.93;2.60;;;;;;;;;;5081236;28;20313;-64
2021/04/06 13:33:54;;;;;;;4.07;2.63;;;;;;;;;;5080895;28;20183;-66
2021/04/06 13:36:20;;;;;;;3.30;2.30;;;;;;;;;;5078355;28;20766;-65
2021/04/06 13:38:46;;;;;;;3.40;1.80;;;;;;;;;;5080435;28;20203;-65
2021/04/06 13:41:12;;;;;;;3.90;1.93;;;;;;;;;;5073639;28;20183;-66
2021/04/06 13:43:39;;;;;;;3.10;1.83;;;;;;;;;;5075313;28;20417;-65
2021/04/06 13:46:05;;;;;;;3.20;1.87;;;;;;;;;;5073649;28;20757;-66
2021/04/06 13:48:31;;;;;;;4.43;2.50;;;;;;;;;;5080474;28;20260;-65
2021/04/06 13:50:57;;;;;;;3.97;2.30;;;;;;;;;;5076239;28;20198;-65
2021/04/06 13:53:23;;;;;;;4.90;2.57;;;;;;;;;;5080739;28;20181;-66
2021/04/06 13:55:49;;;;;;;4.90;2.30;;;;;;;;;;5078882;28;20201;-64
2021/04/06 13:58:18;;;;;;;4.40;2.40;;;;;;;;;;5080518;28;20214;-65
2021/04/06 14:00:46;;;;;;;4.13;2.33;;;;;;;;;;5086086;28;20186;-67
2021/04/06 14:03:13;;;;;;;2.90;2.37;;;;;;;;;;5081580;28;20182;-66
2021/04/06 14:05:39;;;;;;;5.67;3.60;;;;;;;;;;5080605;28;20570;-66
2021/04/06 14:08:06;;;;;;;5.53;2.33;;;;;;;;;;5077996;28;20181;-68
2021/04/06 14:10:33;;;;;;;7.77;2.73;;;;;;;;;;5078403;28;20578;-64
2021/04/06 14:12:59;;;;;;;4.93;2.53;;;;;;;;;;5077267;28;20184;-63
2021/04/06 14:15:26;;;;;;;5.37;2.30;;;;;;;;;;5075519;28;20214;-66
2021/04/06 14:17:53;;;;;;;4.23;2.57;;;;;;;;;;5077869;28;20221;-66
2021/04/06 14:20:20;;;;;;;8.07;2.50;;;;;;;;;;5077564;28;20620;-65
2021/04/06 14:22:47;;;;;;;9.70;3.17;;;;;;;;;;5073717;28;20199;-65
2021/04/06 14:25:15;;;;;;;6.10;2.30;;;;;;;;;;5073606;28;20226;-65
2021/04/06 14:27:45;;;;;;;5.40;2.90;;;;;;;;;;5079786;28;20200;-65
2021/04/06 14:30:12;;;;;;;4.30;2.40;;;;;;;;;;5074308;28;20246;-65
2021/04/06 14:32:38;;;;;;;14.77;7.70;;;;;;;;;;5080391;28;20197;-65
2021/04/06 14:35:05;;;;;;;7.60;5.23;;;;;;;;;;5074290;28;20207;-65
2021/04/06 14:37:31;;;;;;;7.23;4.20;;;;;;;;;;5069865;28;20251;-65
2021/04/06 14:39:57;;;;;;;5.97;3.13;;;;;;;;;;5075823;28;20223;-65
2021/04/06 14:42:23;;;;;;;4.93;3.30;;;;;;;;;;5084679;28;20190;-64
2021/04/06 14:44:49;;;;;;;3.23;2.03;;;;;;;;;;5074809;28;20808;-66
2021/04/06 14:47:15;;;;;;;4.40;2.40;;;;;;;;;;5084869;28;20187;-66